createdAt,value
2019-04-23T00:02:13.485Z,90.20
2019-04-23T00:04:35.201Z,90.00
2019-04-23T00:07:26.673Z,89.60
2019-04-23T00:09:46.778Z,89.90
2019-04-23T00:12:24.969Z,89.80
2019-04-23T00:14:57.674Z,89.40
2019-04-23T00:17:24.698Z,89.10
2019-04-23T00:19:48.566Z,89.90
2019-04-23T00:22:23.618Z,88.80
2019-04-23T00:25:19.179Z,88.60
2019-04-23T00:29:53.029Z,88.60
2019-04-23T00:37:25.940Z,88.00
2019-04-23T00:42:23.520Z,87.60
2019-04-23T00:44:55.524Z,87.30
2019-04-23T00:47:25.724Z,87.50
2019-04-23T00:49:58.607Z,87.30
2019-04-23T00:52:26.648Z,87.10
2019-04-23T00:54:57.315Z,87.50
2019-04-23T00:57:24.500Z,87.30
2019-04-23T01:00:03.523Z,87.20
2019-04-23T01:02:29.711Z,87.00
2019-04-23T01:05:01.287Z,87.10
2019-04-23T01:07:29.831Z,87.10
2019-04-23T01:10:02.780Z,87.00
2019-04-23T01:12:36.142Z,86.80
2019-04-23T01:14:55.186Z,87.20
2019-04-23T01:17:31.839Z,86.70
2019-04-23T01:19:57.684Z,86.90
2019-04-23T01:22:04.324Z,86.60
2019-04-23T01:24:37.084Z,86.40
2019-04-23T01:30:04.773Z,86.20
2019-04-23T01:32:31.741Z,86.20
2019-04-23T01:35:17.670Z,86.70
2019-04-23T01:37:30.370Z,86.20
2019-04-23T01:40:07.799Z,86.30
2019-04-23T01:45:06.981Z,86.30
2019-04-23T01:47:41.469Z,86.70
2019-04-23T01:50:08.251Z,86.10
2019-04-23T01:52:44.225Z,86.20
2019-04-23T01:55:08.127Z,85.90
2019-04-23T01:57:37.743Z,86.60
2019-04-23T02:00:08.789Z,86.30
2019-04-23T02:02:45.740Z,86.20
2019-04-23T02:07:43.864Z,86.70
2019-04-23T02:10:16.788Z,87.20
2019-04-23T02:12:43.394Z,86.90
2019-04-23T02:15:13.716Z,87.20
2019-04-23T02:17:38.699Z,87.50
2019-04-23T02:22:52.371Z,87.30
2019-04-23T02:25:18.102Z,87.90
2019-04-23T02:27:46.709Z,87.90
2019-04-23T02:30:26.641Z,88.30
2019-04-23T02:33:10.959Z,88.20
2019-04-23T02:35:32.634Z,87.80
2019-04-23T02:38:00.776Z,87.80
2019-04-23T02:43:01.675Z,87.60
2019-04-23T02:45:16.751Z,87.70
2019-04-23T02:47:54.985Z,88.20
2019-04-23T02:50:34.865Z,87.50
2019-04-23T02:52:49.837Z,87.40
2019-04-23T02:55:29.379Z,87.30
2019-04-23T02:57:50.384Z,87.20
2019-04-23T03:05:21.592Z,86.30
2019-04-23T03:07:53.256Z,86.40
2019-04-23T03:10:21.135Z,86.10
2019-04-23T03:15:39.335Z,86.00
2019-04-23T03:18:04.033Z,85.90
2019-04-23T03:20:32.954Z,86.00
2019-04-23T03:23:03.069Z,85.60
2019-04-23T03:27:46.400Z,85.10
2019-04-23T03:30:49.456Z,85.00
2019-04-23T03:35:09.836Z,84.40
2019-04-23T03:37:58.583Z,84.40
2019-04-23T03:40:28.226Z,84.20
2019-04-23T03:45:36.946Z,84.70
2019-04-23T03:48:12.039Z,83.90
2019-04-23T03:50:39.077Z,83.60
2019-04-23T03:52:54.715Z,83.70
2019-04-23T03:55:37.766Z,83.90
2019-04-23T03:58:07.490Z,84.10
2019-04-23T04:00:47.315Z,84.20
2019-04-23T04:03:10.804Z,83.00
2019-04-23T04:05:36.024Z,83.10
2019-04-23T04:08:13.881Z,83.40
2019-04-23T04:10:38.410Z,83.70
2019-04-23T04:23:22.756Z,84.20
2019-04-23T04:30:43.839Z,83.00
2019-04-23T04:33:23.982Z,83.40
2019-04-23T04:35:35.039Z,82.70
2019-04-23T04:38:18.240Z,82.80
2019-04-23T04:48:14.169Z,81.30
2019-04-23T04:53:24.938Z,81.70
2019-04-23T04:55:45.218Z,81.40
2019-04-23T04:58:36.973Z,81.20
2019-04-23T05:01:01.420Z,81.30
2019-04-23T05:06:04.975Z,81.30
2019-04-23T05:08:26.374Z,81.60
2019-04-23T05:11:02.157Z,80.80
2019-04-23T05:20:53.521Z,80.90
2019-04-23T05:23:34.925Z,81.40
2019-04-23T05:25:49.742Z,80.30
2019-04-23T05:28:28.329Z,81.20
2019-04-23T05:30:52.231Z,80.00
2019-04-23T05:33:23.919Z,80.80
2019-04-23T05:40:53.768Z,79.80
2019-04-23T05:43:19.178Z,79.80
2019-04-23T05:46:18.035Z,79.20
2019-04-23T05:48:23.541Z,79.70
2019-04-23T05:50:59.180Z,79.20
2019-04-23T05:53:27.624Z,79.30
2019-04-23T05:55:55.541Z,78.60
2019-04-23T06:01:05.898Z,78.90
2019-04-23T06:03:29.393Z,79.50
2019-04-23T06:06:03.076Z,78.30
2019-04-23T06:08:33.541Z,78.60
2019-04-23T06:11:02.428Z,78.40
2019-04-23T06:13:36.208Z,79.00
2019-04-23T06:16:04.745Z,78.30
2019-04-23T06:18:38.948Z,78.70
2019-04-23T06:21:10.191Z,77.60
2019-04-23T06:23:41.767Z,78.40
2019-04-23T06:26:19.717Z,77.80
2019-04-23T06:28:31.623Z,79.60
2019-04-23T06:31:06.416Z,79.20
2019-04-23T06:33:39.663Z,78.50
2019-04-23T06:36:05.626Z,79.00
2019-04-23T06:38:46.148Z,78.30
2019-04-23T06:41:13.210Z,78.70
2019-04-23T06:43:47.467Z,78.70
2019-04-23T06:46:05.426Z,78.50
2019-04-23T06:48:45.212Z,79.10
2019-04-23T06:51:12.820Z,78.20
2019-04-23T06:53:40.769Z,78.50
2019-04-23T06:56:13.522Z,78.60
2019-04-23T06:58:37.012Z,78.40
2019-04-23T07:03:43.235Z,78.20
2019-04-23T07:13:55.699Z,78.10
2019-04-23T07:18:41.251Z,78.70
2019-04-23T07:21:20.284Z,78.10
2019-04-23T07:23:53.831Z,78.00
2019-04-23T07:26:26.110Z,76.80
2019-04-23T07:28:49.950Z,78.00
2019-04-23T07:33:52.790Z,78.70
2019-04-23T07:36:17.131Z,79.20
2019-04-23T07:38:54.719Z,78.30
2019-04-23T07:41:23.640Z,79.50
2019-04-23T07:43:54.566Z,77.70
2019-04-23T07:46:25.074Z,77.70
2019-04-23T07:48:52.107Z,77.40
2019-04-23T07:51:19.564Z,77.30
2019-04-23T07:53:53.569Z,77.30
2019-04-23T07:56:37.257Z,77.60
2019-04-23T07:58:46.418Z,77.00
2019-04-23T08:01:34.778Z,78.10
2019-04-23T08:03:48.374Z,78.30
2019-04-23T08:06:17.854Z,76.50
2019-04-23T08:08:48.708Z,77.10
2019-04-23T08:11:40.414Z,77.90
2019-04-23T08:13:59.035Z,76.40
2019-04-23T08:23:58.597Z,74.00
2019-04-23T08:26:38.765Z,75.00
2019-04-23T08:29:04.053Z,74.50
2019-04-23T08:31:32.036Z,73.40
2019-04-23T08:34:05.640Z,72.60
2019-04-23T08:36:27.183Z,72.70
2019-04-23T08:38:57.635Z,72.80
2019-04-23T08:43:57.221Z,74.50
2019-04-23T08:46:39.537Z,73.30
2019-04-23T08:49:08.558Z,72.10
2019-04-23T08:53:55.484Z,72.00
2019-04-23T08:56:33.363Z,71.00
2019-04-23T08:58:53.662Z,70.60
2019-04-23T09:01:38.093Z,72.00
2019-04-23T09:04:01.966Z,70.90
2019-04-23T09:06:29.482Z,71.50
2019-04-23T09:08:58.548Z,69.50
2019-04-23T09:11:41.750Z,69.30
2019-04-23T09:13:55.607Z,68.60
2019-04-23T09:19:11.259Z,68.20
2019-04-23T09:21:37.415Z,68.70
2019-04-23T09:23:56.177Z,67.70
2019-04-23T09:26:33.108Z,69.60
2019-04-23T09:29:19.976Z,67.30
2019-04-23T09:34:07.774Z,67.30
2019-04-23T09:36:50.459Z,66.80
2019-04-23T09:39:25.485Z,67.70
2019-04-23T09:41:42.136Z,67.20
2019-04-23T09:44:41.513Z,66.10
2019-04-23T09:46:53.197Z,65.20
2019-04-23T09:51:51.172Z,65.50
2019-04-23T09:54:24.006Z,64.90
2019-04-23T10:01:44.965Z,65.00
2019-04-23T10:04:08.732Z,65.80
2019-04-23T10:06:32.577Z,63.90
2019-04-23T10:09:01.997Z,65.00
2019-04-23T10:11:28.496Z,64.80
2019-04-23T10:13:58.747Z,65.00
2019-04-23T10:16:30.172Z,64.40
2019-04-23T10:18:59.365Z,64.20
2019-04-23T10:21:29.260Z,64.40
2019-04-23T10:23:59.296Z,64.30
2019-04-23T10:26:28.380Z,63.10
2019-04-23T10:28:58.184Z,66.00
2019-04-23T10:31:27.077Z,64.70
2019-04-23T10:33:56.084Z,64.30
2019-04-23T10:36:27.696Z,62.80
2019-04-23T10:39:02.647Z,65.20
2019-04-23T10:41:25.883Z,62.40
2019-04-23T10:43:56.701Z,63.70
2019-04-23T10:46:44.115Z,62.00
2019-04-23T10:51:51.341Z,62.70
2019-04-23T10:56:51.654Z,62.60
2019-04-23T10:59:28.787Z,62.80
2019-04-23T11:02:09.922Z,61.60
2019-04-23T11:04:44.371Z,60.80
2019-04-23T11:07:17.114Z,60.30
2019-04-23T11:09:43.623Z,62.90
2019-04-23T11:12:07.886Z,61.40
2019-04-23T11:14:34.306Z,59.30
2019-04-23T11:17:17.778Z,58.30
2019-04-23T11:19:39.936Z,58.40
2019-04-23T11:22:20.522Z,59.00
2019-04-23T11:27:12.203Z,57.80
2019-04-23T11:29:35.168Z,57.60
2019-04-23T11:32:15.361Z,56.90
2019-04-23T11:37:03.769Z,56.70
2019-04-23T11:39:37.786Z,56.70
2019-04-23T11:42:29.668Z,57.40
2019-04-23T11:44:56.312Z,58.20
2019-04-23T11:47:12.506Z,57.00
2019-04-23T11:52:21.194Z,57.50
2019-04-23T11:54:35.887Z,56.30
2019-04-23T11:59:51.901Z,57.10
2019-04-23T12:02:07.138Z,56.40
2019-04-23T12:04:50.411Z,55.70
2019-04-23T12:07:17.561Z,56.10
2019-04-23T12:10:17.234Z,56.30
2019-04-23T12:17:49.134Z,57.00
2019-04-23T12:22:18.067Z,56.70
2019-04-23T12:32:27.742Z,56.00
2019-04-23T12:34:52.928Z,56.60
2019-04-23T12:37:22.733Z,56.60
2019-04-23T12:39:49.459Z,56.60
2019-04-23T12:42:35.181Z,56.50
2019-04-23T12:44:45.757Z,55.60
2019-04-23T12:47:31.948Z,56.60
2019-04-23T12:50:13.279Z,55.90
2019-04-23T12:52:19.596Z,56.10
2019-04-23T12:54:56.661Z,54.90
2019-04-23T12:57:18.300Z,55.30
2019-04-23T12:59:51.616Z,54.40
2019-04-23T13:02:25.308Z,55.00
2019-04-23T13:07:29.267Z,55.20
2019-04-23T13:09:55.735Z,55.60
2019-04-23T13:12:32.625Z,56.50
2019-04-23T13:17:29.749Z,53.80
2019-04-23T13:19:57.890Z,54.60
2019-04-23T13:22:25.715Z,55.30
2019-04-23T13:24:55.999Z,55.90
2019-04-23T13:27:30.646Z,55.70
2019-04-23T13:30:11.851Z,56.00
2019-04-23T13:32:31.465Z,56.50
2019-04-23T13:35:04.749Z,56.30
2019-04-23T13:37:31.517Z,56.90
2019-04-23T13:39:52.371Z,57.60
2019-04-23T13:42:33.063Z,57.90
2019-04-23T13:44:55.923Z,57.50
2019-04-23T13:49:57.309Z,65.60
2019-04-23T13:52:51.663Z,72.00
2019-04-23T13:54:59.827Z,80.00
2019-04-23T13:59:56.284Z,91.80
2019-04-23T14:07:32.533Z,94.30
2019-04-23T14:09:54.793Z,94.80
2019-04-23T14:12:31.841Z,93.70
2019-04-23T14:17:46.959Z,94.20
2019-04-23T14:20:00.542Z,93.30
2019-04-23T14:30:12.692Z,93.00
2019-04-23T14:32:30.836Z,90.00
2019-04-23T14:35:11.486Z,90.60
2019-04-23T14:37:44.074Z,89.40
2019-04-23T14:40:02.502Z,91.70
2019-04-23T14:42:44.564Z,91.10
2019-04-23T14:45:19.079Z,93.40
2019-04-23T14:50:22.943Z,95.60
2019-04-23T14:52:41.380Z,96.40
2019-04-23T14:55:40.202Z,96.80
2019-04-23T14:57:42.359Z,94.60
2019-04-23T15:00:07.298Z,94.50
2019-04-23T15:05:13.081Z,92.60
2019-04-23T15:07:37.548Z,92.50
2019-04-23T15:10:18.359Z,92.30
2019-04-23T15:12:40.345Z,91.60
2019-04-23T15:17:44.543Z,92.70
2019-04-23T15:20:11.634Z,93.90
2019-04-23T15:22:59.815Z,95.00
2019-04-23T15:25:26.237Z,96.40
2019-04-23T15:30:04.095Z,99.90
2019-04-23T15:37:58.240Z,96.40
2019-04-23T15:40:15.230Z,97.70
2019-04-23T15:42:51.601Z,95.40
2019-04-23T15:47:48.095Z,95.20
2019-04-23T15:50:22.233Z,96.80
2019-04-23T15:52:52.775Z,96.70
2019-04-23T15:55:15.101Z,96.10
2019-04-23T15:58:02.896Z,96.00
2019-04-23T16:00:13.232Z,95.40
2019-04-23T16:02:18.195Z,95.20
2019-04-23T16:04:47.026Z,95.10
2019-04-23T16:07:32.541Z,97.10
2019-04-23T16:10:19.107Z,99.10
2019-04-23T16:12:51.632Z,99.90
2019-04-23T16:15:12.919Z,99.90
2019-04-23T16:17:53.599Z,99.90
2019-04-23T16:22:39.667Z,99.90
2019-04-23T16:25:12.766Z,99.90
2019-04-23T16:27:50.859Z,99.90
2019-04-23T16:32:58.396Z,99.90
2019-04-23T16:35:29.168Z,99.90
2019-04-23T16:38:02.103Z,99.90
2019-04-23T16:42:58.153Z,99.90
2019-04-23T16:47:56.558Z,99.90
2019-04-23T16:50:31.147Z,99.90
2019-04-23T16:52:52.244Z,99.90
2019-04-23T16:55:23.794Z,99.90
2019-04-23T16:58:07.624Z,99.90
2019-04-23T17:03:04.085Z,99.90
2019-04-23T17:05:24.838Z,99.90
2019-04-23T17:08:26.476Z,99.90
2019-04-23T17:12:56.009Z,99.40
2019-04-23T17:15:31.551Z,99.80
2019-04-23T17:17:55.977Z,98.80
2019-04-23T17:20:30.784Z,98.20
2019-04-23T17:23:11.085Z,97.90
2019-04-23T17:25:27.403Z,97.60
2019-04-23T17:28:04.828Z,97.60
2019-04-23T17:30:28.224Z,96.70
2019-04-23T17:33:09.692Z,96.90
2019-04-23T17:38:10.756Z,96.30
2019-04-23T17:40:30.936Z,95.60
2019-04-23T17:48:11.784Z,94.90
2019-04-23T17:50:32.594Z,95.00
2019-04-23T17:53:03.122Z,95.80
2019-04-23T17:55:46.291Z,94.90
2019-04-23T17:58:06.101Z,94.60
2019-04-23T18:00:41.027Z,93.90
2019-04-23T18:03:08.311Z,94.20
2019-04-23T18:05:40.375Z,93.40
2019-04-23T18:08:05.439Z,94.10
2019-04-23T18:10:38.742Z,94.10
2019-04-23T18:13:13.417Z,93.20
2019-04-23T18:15:40.697Z,93.50
2019-04-23T18:18:10.324Z,93.70
2019-04-23T18:20:50.597Z,93.70
2019-04-23T18:23:26.169Z,93.50
2019-04-23T18:25:44.546Z,92.70
2019-04-23T18:28:08.005Z,92.90
2019-04-23T18:30:49.431Z,92.60
2019-04-23T18:33:49.289Z,92.70
2019-04-23T18:35:37.878Z,92.90
2019-04-23T18:38:18.312Z,92.70
2019-04-23T18:41:00.959Z,92.40
2019-04-23T18:45:53.803Z,92.60
2019-04-23T18:48:32.928Z,92.70
2019-04-23T18:50:52.174Z,92.20
2019-04-23T18:53:26.037Z,92.00
2019-04-23T18:56:05.540Z,92.30
2019-04-23T18:58:22.387Z,92.10
2019-04-23T19:00:57.120Z,91.90
2019-04-23T19:03:29.430Z,91.20
2019-04-23T19:06:00.308Z,90.70
2019-04-23T19:10:50.598Z,86.90
2019-04-23T19:13:25.025Z,86.10
2019-04-23T19:15:50.941Z,85.40
2019-04-23T19:18:26.130Z,84.00
2019-04-23T19:23:32.278Z,83.50
2019-04-23T19:25:54.615Z,82.60
2019-04-23T19:28:44.478Z,82.60
2019-04-23T19:38:31.422Z,82.50
2019-04-23T19:41:01.681Z,82.10
2019-04-23T19:43:32.847Z,82.00
2019-04-23T19:46:16.467Z,82.00
2019-04-23T19:48:55.263Z,81.30
2019-04-23T19:51:03.114Z,80.80
2019-04-23T19:53:43.680Z,80.60
2019-04-23T19:56:16.166Z,80.90
2019-04-23T19:58:40.872Z,80.60
2019-04-23T20:08:53.279Z,80.50
2019-04-23T20:11:07.948Z,80.50
2019-04-23T20:13:48.347Z,80.80
2019-04-23T20:16:10.889Z,80.60
2019-04-23T20:18:46.294Z,80.30
2019-04-23T20:24:02.843Z,81.20
2019-04-23T20:26:14.871Z,80.80
2019-04-23T20:29:03.293Z,80.70
2019-04-23T20:32:09.153Z,81.50
2019-04-23T20:33:59.156Z,81.40
2019-04-23T20:36:14.090Z,81.80
2019-04-23T20:38:53.512Z,81.90
2019-04-23T20:41:14.874Z,81.90
2019-04-23T20:46:24.860Z,82.60
2019-04-23T20:48:48.697Z,83.80
2019-04-23T20:51:04.347Z,83.90
2019-04-23T20:53:47.252Z,84.80
2019-04-23T20:58:52.124Z,84.70
2019-04-23T21:01:13.927Z,85.50
2019-04-23T21:03:56.690Z,85.70
2019-04-23T21:06:29.741Z,86.10
2019-04-23T21:09:07.330Z,86.30
2019-04-23T21:11:18.571Z,86.60
2019-04-23T21:16:15.306Z,87.60
2019-04-23T21:18:40.929Z,88.80
2019-04-23T21:21:17.899Z,88.90
2019-04-23T21:23:50.162Z,89.30
2019-04-23T21:26:07.945Z,89.40
2019-04-23T21:28:44.011Z,90.00
2019-04-23T21:31:12.951Z,90.40
2019-04-23T21:34:06.231Z,90.20
2019-04-23T21:36:18.401Z,90.30
2019-04-23T21:46:20.652Z,90.80
2019-04-23T21:49:09.381Z,91.00
2019-04-23T21:51:39.615Z,91.10
2019-04-23T21:53:53.154Z,91.30
2019-04-23T21:56:21.017Z,91.30
2019-04-23T21:58:57.957Z,91.60
2019-04-23T22:06:28.661Z,91.90
2019-04-23T22:09:02.161Z,92.00
2019-04-23T22:14:07.851Z,92.20
2019-04-23T22:21:33.000Z,92.60
2019-04-23T22:26:37.867Z,92.80
2019-04-23T22:34:09.028Z,93.10
2019-04-23T22:36:29.394Z,93.30
2019-04-23T22:39:03.118Z,93.30
2019-04-23T22:41:38.035Z,93.10
2019-04-23T22:44:05.357Z,93.40
2019-04-23T22:46:50.927Z,93.40
2019-04-23T22:49:14.348Z,93.60
2019-04-23T22:51:42.048Z,93.80
2019-04-23T22:54:03.697Z,93.60
2019-04-23T22:56:38.958Z,94.10
2019-04-23T22:59:18.590Z,94.20
2019-04-23T23:01:50.387Z,94.10
2019-04-23T23:04:04.512Z,94.50
2019-04-23T23:11:47.625Z,94.80
2019-04-23T23:14:35.789Z,95.20
2019-04-23T23:16:37.626Z,95.20
2019-04-23T23:19:14.901Z,95.10
2019-04-23T23:21:57.015Z,95.90
2019-04-23T23:24:09.648Z,95.70
2019-04-23T23:26:42.078Z,95.80
2019-04-23T23:29:06.308Z,96.10
2019-04-23T23:31:42.204Z,96.50
2019-04-23T23:34:09.784Z,96.40
2019-04-23T23:36:47.621Z,96.30
2019-04-23T23:39:18.090Z,96.40
2019-04-23T23:41:55.091Z,96.50
2019-04-23T23:46:52.914Z,96.60
2019-04-23T23:51:45.210Z,96.30
2019-04-23T23:54:13.550Z,96.90
2019-04-23T23:56:54.783Z,97.10
2019-04-23T23:59:21.484Z,97.30
